Marshfield, Massachusetts
Current Conditions -  °F | °C
As of 8:52 PM on Saturday 25 Oct 2014 (Local Time) from KPYM Reporting Station
Broken Clouds Broken Clouds  
Wind Chill: 53°   Ceiling: 10000
Heat Index: 53°   Visibility: 10mi
Dew Point: 46°   Wind: 7mph
Humidity: 77%   Direction: 210°SSW
Pressure: 29.6"   Gusts: NA
Location:  42.09°N, 70.71°W
Report Text: KPYM 260052Z AUTO 21006KT 10SM BKN100 12/08 A2960 RMK AO2 SLP023 T01170078
Loading
Personal Weather Stations






























Interactive Weather Map New forecast layout! Learn more

10-Day Weather Forecast

Advertisements
Track Severe Weather on mobile